Time;durP1;ratioP1;P1;durP2;ratioP2;P2;SDS_P1;SDS_P2;PMS_P1;PMS_P2;Temp;Humidity;BMP_temperature;BMP_pressure;BME280_temperature;BME280_humidity;BME280_pressure;Samples;Min_cycle;Max_cycle;Signal;HPM_P1;HPM_P2
2023/05/04 00:05:11;;;;;;;1999.90;999.90;;;10.50;99.90;;;;;;6727398;88;20213;-75
2023/05/04 00:15:11;;;;;;;1999.90;999.90;;;10.20;99.90;;;;;;6721276;88;20704;-75
2023/05/04 00:25:12;;;;;;;1999.90;999.90;;;10.10;99.90;;;;;;6728454;88;20291;-75
2023/05/04 00:35:12;;;;;;;1999.90;999.90;;;9.90;99.90;;;;;;6728918;88;20302;-75
2023/05/04 00:45:14;;;;;;;1999.90;999.90;;;9.70;99.90;;;;;;6725183;88;20201;-75
2023/05/04 00:55:15;;;;;;;1999.90;999.90;;;9.40;99.90;;;;;;6725264;88;20242;-76
2023/05/04 01:05:16;;;;;;;1999.90;999.90;;;9.00;99.90;;;;;;6723540;88;20256;-75
2023/05/04 01:15:19;;;;;;;1999.90;999.90;;;8.70;99.90;;;;;;6727984;88;20224;-75
2023/05/04 01:25:19;;;;;;;1999.90;999.90;;;8.70;99.90;;;;;;6724715;88;20229;-75
2023/05/04 01:35:20;;;;;;;1999.90;999.90;;;8.80;99.90;;;;;;6726646;88;20940;-76
2023/05/04 01:45:21;;;;;;;1999.90;999.90;;;8.50;99.90;;;;;;6731490;88;20322;-75
2023/05/04 01:55:22;;;;;;;1999.90;999.90;;;8.20;99.90;;;;;;6740984;88;20177;-75
2023/05/04 02:05:22;;;;;;;1999.90;999.90;;;8.00;99.90;;;;;;6733491;88;20181;-77
2023/05/04 02:15:23;;;;;;;1999.90;999.90;;;8.00;99.90;;;;;;6730917;88;20189;-75
2023/05/04 02:25:24;;;;;;;1999.90;999.90;;;7.60;99.90;;;;;;6724697;88;20193;-75
2023/05/04 02:35:24;;;;;;;1999.90;999.90;;;7.70;99.90;;;;;;6726336;88;20235;-75
2023/05/04 02:45:25;;;;;;;1999.90;999.90;;;7.90;99.90;;;;;;6725275;88;20213;-76
2023/05/04 02:55:25;;;;;;;1999.90;999.90;;;8.00;99.90;;;;;;6727387;88;20317;-75
2023/05/04 03:05:26;;;;;;;1999.90;999.90;;;8.10;99.90;;;;;;6725151;88;20199;-75
2023/05/04 03:15:26;;;;;;;1999.90;999.90;;;7.80;99.90;;;;;;6722760;88;20222;-75
2023/05/04 03:25:27;;;;;;;1999.90;999.90;;;7.70;99.90;;;;;;6728516;88;20213;-75
2023/05/04 03:35:27;;;;;;;1999.90;999.90;;;7.30;99.90;;;;;;6725914;88;20177;-75
2023/05/04 03:55:31;;;;;;;1999.90;999.90;;;7.00;99.90;;;;;;6726643;88;20219;-78
2023/05/04 04:05:32;;;;;;;1999.90;999.90;;;6.80;99.90;;;;;;6725371;88;20234;-77
2023/05/04 04:15:32;;;;;;;1999.90;999.90;;;7.00;99.90;;;;;;6725696;88;20208;-77
2023/05/04 04:25:33;;;;;;;1999.90;999.90;;;7.30;99.90;;;;;;6724293;88;20181;-80
2023/05/04 04:35:33;;;;;;;1999.90;999.90;;;7.50;99.90;;;;;;6725921;88;20194;-78
2023/05/04 04:45:34;;;;;;;1999.90;999.90;;;7.40;99.90;;;;;;6718924;88;20321;-79
2023/05/04 04:55:38;;;;;;;1999.90;999.90;;;7.70;99.90;;;;;;6717536;88;20208;-79
2023/05/04 05:05:38;;;;;;;1999.90;999.90;;;7.90;99.90;;;;;;6724482;88;20711;-78
2023/05/04 05:15:39;;;;;;;1999.90;999.90;;;8.10;99.90;;;;;;6720775;88;20189;-78
2023/05/04 05:25:40;;;;;;;1999.90;999.90;;;8.00;99.90;;;;;;6712808;88;20205;-78
2023/05/04 05:35:40;;;;;;;1999.90;999.90;;;8.10;99.90;;;;;;6716912;88;20724;-78
2023/05/04 05:45:41;;;;;;;1999.90;999.90;;;8.50;99.90;;;;;;6735590;88;20227;-79
2023/05/04 05:55:42;;;;;;;1999.90;999.90;;;9.30;99.90;;;;;;6710887;88;20553;-79
2023/05/04 06:05:42;;;;;;;1999.90;999.90;;;9.90;99.90;;;;;;6709339;88;20632;-78
2023/05/04 06:15:52;;;;;;;1999.90;999.90;;;10.40;99.90;;;;;;6707940;88;20239;-78
2023/05/04 06:25:53;;;;;;;1999.90;999.90;;;10.70;99.90;;;;;;6710697;88;20317;-79
2023/05/04 06:35:54;;;;;;;1999.90;999.90;;;10.80;99.90;;;;;;6715075;88;20232;-79
2023/05/04 06:45:55;;;;;;;1999.90;999.90;;;11.40;99.90;;;;;;6717489;88;20678;-78
2023/05/04 06:55:55;;;;;;;1999.90;999.90;;;11.60;99.90;;;;;;6719238;88;20514;-78
2023/05/04 07:05:56;;;;;;;1999.90;999.90;;;12.00;99.90;;;;;;6721995;88;20212;-78
2023/05/04 07:15:56;;;;;;;1999.90;999.90;;;12.50;99.90;;;;;;6712605;88;20199;-79
2023/05/04 07:25:57;;;;;;;1999.90;999.90;;;13.20;99.90;;;;;;6714800;88;20190;-79
2023/05/04 07:35:58;;;;;;;1999.90;999.90;;;13.90;99.90;;;;;;6715818;88;20208;-79
2023/05/04 07:45:58;;;;;;;1999.90;999.90;;;14.50;99.90;;;;;;6712299;88;20193;-79
2023/05/04 07:56:07;;;;;;;1999.90;999.90;;;15.40;99.90;;;;;;6711689;88;20358;-79
2023/05/04 08:06:07;;;;;;;1999.90;999.90;;;16.50;99.90;;;;;;6718220;88;20236;-79
2023/05/04 08:16:09;;;;;;;1999.90;999.90;;;17.40;99.90;;;;;;6711917;88;20210;-78
2023/05/04 08:26:09;;;;;;;1999.90;999.90;;;17.20;99.60;;;;;;6710239;88;20224;-78
2023/05/04 08:36:10;;;;;;;1999.90;999.90;;;17.20;99.60;;;;;;6713855;88;20243;-79
2023/05/04 08:46:12;;;;;;;1999.90;999.90;;;17.90;99.20;;;;;;6710419;88;20236;-78
2023/05/04 08:56:13;;;;;;;1999.90;999.90;;;18.30;98.80;;;;;;6723078;88;20230;-78
2023/05/04 09:06:14;;;;;;;1999.90;999.90;;;18.00;99.30;;;;;;6730739;88;20294;-80
2023/05/04 09:16:15;;;;;;;1999.90;999.90;;;18.60;98.50;;;;;;6721753;88;21030;-78
2023/05/04 09:26:28;;;;;;;1999.90;999.90;;;18.80;98.10;;;;;;6714392;88;20645;-78
2023/05/04 09:36:29;;;;;;;1999.90;999.90;;;19.00;98.20;;;;;;6720676;88;20274;-79
2023/05/04 09:46:30;;;;;;;1999.90;999.90;;;19.70;97.20;;;;;;6710655;77;20305;-75
2023/05/04 09:56:35;;;;;;;1999.90;999.90;;;19.40;97.30;;;;;;6662178;88;20188;-75
2023/05/04 10:06:36;;;;;;;1999.90;999.90;;;19.70;96.30;;;;;;6649068;88;20222;-75
2023/05/04 10:16:51;;;;;;;1999.90;999.90;;;19.90;96.10;;;;;;6648797;88;21175;-74
2023/05/04 10:27:02;;;;;;;1999.90;999.90;;;19.90;95.50;;;;;;6658458;88;20193;-75
2023/05/04 10:37:05;;;;;;;1999.90;999.90;;;20.80;94.70;;;;;;6651142;88;20196;-75
2023/05/04 10:47:07;;;;;;;1999.90;999.90;;;21.20;94.00;;;;;;6649063;88;20216;-75
2023/05/04 10:57:09;;;;;;;1999.90;999.90;;;21.70;93.10;;;;;;6645304;88;20298;-75
2023/05/04 11:07:09;;;;;;;1999.90;999.90;;;21.80;91.70;;;;;;6654545;88;20236;-75
2023/05/04 11:17:11;;;;;;;1999.90;999.90;;;22.00;91.70;;;;;;6654415;88;20250;-75
2023/05/04 11:27:27;;;;;;;1999.90;999.90;;;22.50;89.70;;;;;;6654055;89;20381;-76
2023/05/04 11:37:28;;;;;;;1999.90;999.90;;;22.50;90.20;;;;;;6651356;88;20215;-75
2023/05/04 11:47:29;;;;;;;1999.90;999.90;;;22.50;87.80;;;;;;6646777;88;20651;-76
2023/05/04 11:57:30;;;;;;;1999.90;999.90;;;23.90;87.10;;;;;;6651477;88;20189;-75
2023/05/04 12:07:36;;;;;;;1999.90;999.90;;;23.80;87.30;;;;;;6646898;88;20215;-76
2023/05/04 12:17:42;;;;;;;1999.90;999.90;;;24.40;85.60;;;;;;6654025;88;20656;-76
2023/05/04 12:27:43;;;;;;;1999.90;999.90;;;24.40;85.60;;;;;;6649226;88;20184;-76
2023/05/04 12:37:43;;;;;;;1999.90;999.90;;;24.30;80.30;;;;;;6645811;89;20627;-76
2023/05/04 12:47:44;;;;;;;1999.90;999.90;;;24.80;79.30;;;;;;6647499;89;20732;-76
2023/05/04 12:57:44;;;;;;;1999.90;999.90;;;25.80;80.30;;;;;;6655211;88;20691;-76
2023/05/04 13:07:45;;;;;;;1999.90;999.90;;;24.90;76.90;;;;;;6651816;88;20707;-76
2023/05/04 13:17:45;;;;;;;1999.90;999.90;;;25.40;76.10;;;;;;6648182;88;20197;-76
2023/05/04 13:27:46;;;;;;;1999.90;999.90;;;25.40;72.50;;;;;;6646038;89;21062;-76
2023/05/04 13:37:46;;;;;;;1999.90;999.90;;;25.60;70.70;;;;;;6645360;88;21133;-76
2023/05/04 13:47:47;;;;;;;1999.90;999.90;;;25.50;69.20;;;;;;6669054;88;20241;-76
2023/05/04 13:57:48;;;;;;;1999.90;999.90;;;25.70;69.00;;;;;;6646692;88;20292;-76
2023/05/04 14:07:49;;;;;;;1999.90;999.90;;;25.30;69.10;;;;;;6652350;88;20635;-76
2023/05/04 14:17:50;;;;;;;1999.90;999.90;;;25.10;68.40;;;;;;6647435;88;20746;-76
2023/05/04 14:27:51;;;;;;;1999.90;999.90;;;25.60;69.50;;;;;;6646704;89;20192;-76
2023/05/04 14:37:52;;;;;;;1999.90;999.90;;;25.50;67.70;;;;;;6650555;88;20192;-76
2023/05/04 14:47:52;;;;;;;1999.90;999.90;;;25.30;68.90;;;;;;6645707;89;20196;-76
2023/05/04 14:57:53;;;;;;;1999.90;999.90;;;24.60;70.80;;;;;;6644503;88;20328;-76
2023/05/04 15:07:53;;;;;;;1999.90;999.90;;;24.70;72.70;;;;;;6651593;88;20343;-76
2023/05/04 15:17:54;;;;;;;1999.90;999.90;;;24.70;71.80;;;;;;6645955;88;20230;-76
2023/05/04 15:27:54;;;;;;;1999.90;999.90;;;24.20;73.30;;;;;;6646381;89;20299;-76
2023/05/04 15:37:55;;;;;;;1999.90;999.90;;;24.20;72.20;;;;;;6648001;88;20216;-75
2023/05/04 15:47:58;;;;;;;1999.90;999.90;;;24.10;72.30;;;;;;6667997;77;20222;-75
2023/05/04 15:57:58;;;;;;;1999.90;999.90;;;24.10;72.50;;;;;;6699240;88;20414;-76
2023/05/04 16:08:00;;;;;;;1999.90;999.90;;;24.50;71.90;;;;;;6710346;88;20293;-75
2023/05/04 16:18:01;;;;;;;1999.90;999.90;;;24.80;73.40;;;;;;6706682;88;20683;-78
2023/05/04 16:28:01;;;;;;;1999.90;999.90;;;24.30;72.90;;;;;;6713763;88;20182;-77
2023/05/04 16:38:02;;;;;;;1999.90;999.90;;;24.20;72.30;;;;;;6715307;88;20182;-76
2023/05/04 16:48:04;;;;;;;1999.90;999.90;;;24.30;72.60;;;;;;6710656;88;20200;-76
2023/05/04 16:58:05;;;;;;;1999.90;999.90;;;24.10;73.20;;;;;;6711170;88;20207;-76
2023/05/04 17:08:05;;;;;;;1999.90;999.90;;;24.20;74.50;;;;;;6711723;88;20193;-76
2023/05/04 17:18:06;;;;;;;1999.90;999.90;;;23.80;74.60;;;;;;6711187;88;21021;-76
2023/05/04 17:28:06;;;;;;;1999.90;999.90;;;23.80;76.00;;;;;;6709259;88;20329;-76
2023/05/04 17:38:07;;;;;;;1999.90;999.90;;;24.40;75.20;;;;;;6710385;88;20187;-76
2023/05/04 17:48:07;;;;;;;1999.90;999.90;;;23.40;75.50;;;;;;6709962;88;20197;-76
2023/05/04 17:58:08;;;;;;;1999.90;999.90;;;23.00;76.50;;;;;;6710587;88;20237;-75
2023/05/04 18:08:08;;;;;;;1999.90;999.90;;;22.70;77.10;;;;;;6717583;88;20245;-75
2023/05/04 18:18:09;;;;;;;1999.90;999.90;;;22.50;77.10;;;;;;6722163;88;20325;-75
2023/05/04 18:28:10;;;;;;;1999.90;999.90;;;22.40;77.10;;;;;;6711652;88;20194;-75
2023/05/04 18:38:10;;;;;;;1999.90;999.90;;;22.20;77.90;;;;;;6708573;88;20197;-77
2023/05/04 18:48:11;;;;;;;1999.90;999.90;;;22.10;78.50;;;;;;6712661;88;20629;-76
2023/05/04 18:58:11;;;;;;;1999.90;999.90;;;21.70;79.30;;;;;;6711722;88;20263;-76
2023/05/04 19:08:12;;;;;;;1999.90;999.90;;;21.40;81.00;;;;;;6711107;88;20291;-75
2023/05/04 19:18:13;;;;;;;1999.90;999.90;;;20.90;82.30;;;;;;6709410;88;20259;-77
2023/05/04 19:28:13;;;;;;;1999.90;999.90;;;20.60;82.90;;;;;;6712576;88;20292;-76
2023/05/04 19:38:14;;;;;;;1999.90;999.90;;;20.40;83.10;;;;;;6717755;88;20173;-77
2023/05/04 19:48:16;;;;;;;1999.90;999.90;;;20.10;83.20;;;;;;6713397;88;20289;-76
2023/05/04 19:58:17;;;;;;;1999.90;999.90;;;19.80;84.30;;;;;;6711767;88;20662;-77
2023/05/04 20:08:18;;;;;;;1999.90;999.90;;;19.50;85.30;;;;;;6713907;88;20186;-76
2023/05/04 20:18:19;;;;;;;1999.90;999.90;;;19.20;86.00;;;;;;6714988;88;20315;-76
2023/05/04 20:28:20;;;;;;;1999.90;999.90;;;19.00;86.30;;;;;;6710570;88;20169;-75
2023/05/04 20:38:20;;;;;;;1999.90;999.90;;;18.80;86.70;;;;;;6708085;88;20193;-76
2023/05/04 20:48:21;;;;;;;1999.90;999.90;;;18.70;86.90;;;;;;6709213;88;20223;-74
2023/05/04 20:58:21;;;;;;;1999.90;999.90;;;18.60;87.20;;;;;;6709815;88;20300;-74
2023/05/04 21:08:22;;;;;;;1999.90;999.90;;;18.50;87.40;;;;;;6708986;88;20208;-75
2023/05/04 21:18:23;;;;;;;1999.90;999.90;;;18.30;88.00;;;;;;6712254;88;20224;-74
2023/05/04 21:28:23;;;;;;;1999.90;999.90;;;18.30;88.00;;;;;;6710556;88;20243;-75
2023/05/04 21:38:24;;;;;;;1999.90;999.90;;;18.30;88.20;;;;;;6708271;88;20616;-74
2023/05/04 21:58:28;;;;;;;1999.90;999.90;;;18.40;88.40;;;;;;6638094;88;20222;-80
2023/05/04 22:08:28;;;;;;;1999.90;999.90;;;18.40;88.90;;;;;;6640503;89;20236;-79
2023/05/04 22:18:29;;;;;;;1999.90;999.90;;;18.50;88.60;;;;;;6647442;88;20207;-79
2023/05/04 22:28:30;;;;;;;1999.90;999.90;;;18.50;88.90;;;;;;6649081;88;20225;-79
2023/05/04 22:38:30;;;;;;;1999.90;999.90;;;18.50;88.80;;;;;;6657602;88;20313;-79
2023/05/04 22:48:31;;;;;;;1999.90;999.90;;;18.60;88.90;;;;;;6636728;89;20203;-78
2023/05/04 22:58:32;;;;;;;1999.90;999.90;;;18.70;88.30;;;;;;6643180;88;20261;-78
2023/05/04 23:08:33;;;;;;;1999.90;999.90;;;18.70;88.80;;;;;;6644776;88;20242;-78
2023/05/04 23:18:33;;;;;;;1999.90;999.90;;;18.60;88.80;;;;;;6647069;88;20599;-78
2023/05/04 23:28:34;;;;;;;1999.90;999.90;;;18.50;89.60;;;;;;6651255;88;20215;-79
2023/05/04 23:38:35;;;;;;;1999.90;999.90;;;18.30;90.30;;;;;;6640685;88;20189;-78
2023/05/04 23:48:35;;;;;;;1999.90;999.90;;;18.40;90.10;;;;;;6645436;88;20235;-78
2023/05/04 23:58:36;;;;;;;1999.90;999.90;;;18.20;90.50;;;;;;6644756;88;20222;-78
